Terminal Aerodrome Forecast
Issued by NWS

Home | Current Version | Previous Version | Text Only | Print | Product List | Glossary Off
Versions: 1 2 3 4 5 6 7 8 9 10 11 12 13 14 15 16

000
FTUS43 KOAX 210540
TAFCDR
TAF
KCDR 210540Z 2106/2206 25004KT P6SM FEW150
     FM211500 31010G20KT P6SM FEW130
     FM212200 33013G21KT P6SM VCTS BKN100CB
     FM220400 28007KT P6SM BKN150=

USA.gov is the U.S. government's official web portal to all federal, state and local government web resources and services.